createdAt,value
2022-09-27T04:52:28.062Z,13
2022-09-27T04:57:50.977Z,13
2022-09-27T05:03:12.148Z,13.1
2022-09-27T05:08:33.891Z,13.1
2022-09-27T05:13:56.660Z,13.1
2022-09-27T05:19:33.777Z,13.1
2022-09-27T05:24:59.023Z,13.2
2022-09-27T05:30:22.099Z,13.2
2022-09-27T05:35:45.415Z,13.3
2022-09-27T05:41:31.469Z,13.4
2022-09-27T05:46:54.603Z,13.5
2022-09-27T05:52:17.584Z,13.6
2022-09-27T05:57:57.423Z,13.8
2022-09-27T06:03:21.237Z,13.8
2022-09-27T06:08:44.054Z,13.9
2022-09-27T06:14:22.153Z,14.1
2022-09-27T06:20:00.515Z,14.2
2022-09-27T06:25:38.033Z,14.4
2022-09-27T06:31:15.582Z,14.6
2022-09-27T06:36:54.145Z,14.6
2022-09-27T06:42:31.740Z,14.7
2022-09-27T06:48:14.982Z,14.7
2022-09-27T06:53:53.228Z,14.8
2022-09-27T06:59:35.918Z,14.7
2022-09-27T07:05:19.602Z,14.6
2022-09-27T07:10:47.799Z,14.8
2022-09-27T07:16:09.415Z,14.9
2022-09-27T07:21:17.120Z,15.1
2022-09-27T07:26:39.926Z,15.2
2022-09-27T07:32:19.940Z,15.3
2022-09-27T07:37:42.120Z,15.4
2022-09-27T07:43:20.973Z,15.6
2022-09-27T07:48:59.126Z,16
2022-09-27T07:54:25.264Z,16.4
2022-09-27T08:00:04.096Z,16.8
2022-09-27T08:16:27.995Z,16.9
2022-09-27T08:22:05.417Z,16.9
2022-09-27T08:27:28.779Z,16.8
2022-09-27T08:33:07.754Z,16.7
2022-09-27T08:38:49.726Z,16.7
2022-09-27T08:44:14.715Z,16.8
2022-09-27T08:49:53.707Z,17.4
2022-09-27T08:55:31.255Z,18.2
2022-09-27T17:50:35.635Z,15.1
2022-09-27T17:55:58.770Z,14.9
2022-09-27T18:01:39.293Z,14.8
2022-09-27T18:07:18.070Z,14.6
2022-09-27T18:12:41.325Z,14.4
2022-09-27T18:18:03.387Z,14.3
2022-09-27T18:29:05.492Z,13.9
2022-09-27T18:34:43.372Z,13.6
2022-09-27T18:40:38.322Z,13.5
2022-09-27T18:46:51.557Z,13.3
2022-09-27T18:52:35.835Z,13.1
2022-09-27T18:58:18.329Z,12.9
2022-09-27T19:03:42.536Z,12.8
2022-09-27T19:14:59.275Z,12.6
2022-09-27T19:20:37.663Z,12.4
2022-09-27T19:26:14.808Z,12.3
2022-09-27T19:31:57.348Z,12.3
2022-09-27T19:37:40.862Z,12.2
2022-09-27T19:42:48.405Z,12.1
2022-09-27T19:48:25.862Z,12
2022-09-27T19:54:09.889Z,11.9
2022-09-27T19:59:21.465Z,11.9
2022-09-27T20:05:06.023Z,11.9
2022-09-27T20:10:28.573Z,11.8
2022-09-27T20:16:10.436Z,11.8
2022-09-27T20:21:50.464Z,11.8
2022-09-27T20:33:22.795Z,11.7
2022-09-27T20:39:02.696Z,11.7
2022-09-27T20:44:41.346Z,11.6
2022-09-27T20:50:18.995Z,11.6
2022-09-27T20:56:00.040Z,11.6
2022-09-27T21:02:06.441Z,11.5
2022-09-27T21:07:46.041Z,11.5
2022-09-27T21:13:26.940Z,11.4
2022-09-27T21:19:06.868Z,11.4
2022-09-27T21:24:43.806Z,11.4
2022-09-27T21:30:21.493Z,11.4
2022-09-27T21:36:00.338Z,11.3
2022-09-27T21:41:37.325Z,11.3
2022-09-27T21:47:14.456Z,11.2
2022-09-27T21:52:55.107Z,11.2
2022-09-27T21:58:35.632Z,11.1
